createdAt,value
2023-03-21T00:01:07.820Z,5.39
2023-03-21T00:03:37.167Z,4.71
2023-03-21T00:06:13.114Z,5.21
2023-03-21T00:08:43.751Z,4.74
2023-03-21T00:11:13.756Z,5.18
2023-03-21T00:13:44.741Z,4.92
2023-03-21T00:16:20.335Z,4.65
2023-03-21T00:18:56.457Z,4.87
2023-03-21T00:24:19.138Z,5.06
2023-03-21T00:26:49.200Z,4.92
2023-03-21T00:29:18.878Z,5.43
2023-03-21T00:31:49.399Z,4.95
2023-03-21T00:34:26.811Z,5.30
2023-03-21T00:37:09.432Z,4.93
2023-03-21T00:39:40.926Z,4.96
2023-03-21T00:42:13.419Z,4.87
2023-03-21T00:44:44.378Z,5.31
2023-03-21T00:47:15.084Z,5.31
2023-03-21T00:49:43.896Z,4.92
2023-03-21T00:52:24.540Z,5.55
2023-03-21T00:55:02.035Z,5.57
2023-03-21T00:57:38.555Z,5.78
2023-03-21T01:00:13.031Z,5.37
2023-03-21T01:03:04.404Z,5.59
2023-03-21T01:06:06.312Z,5.86
2023-03-21T01:08:55.274Z,5.54
2023-03-21T01:11:27.761Z,5.72
2023-03-21T01:14:14.714Z,6.02
2023-03-21T01:16:51.487Z,5.80
2023-03-21T01:19:30.875Z,5.74
2023-03-21T01:22:03.492Z,5.96
2023-03-21T01:24:35.574Z,5.92
2023-03-21T01:27:07.961Z,5.86
2023-03-21T01:29:37.036Z,6.01
2023-03-21T01:32:05.544Z,6.31
2023-03-21T01:34:35.306Z,6.27
2023-03-21T01:37:04.764Z,6.21
2023-03-21T01:39:45.019Z,6.04
2023-03-21T01:42:16.902Z,6.17
2023-03-21T01:45:07.282Z,6.33
2023-03-21T01:47:41.875Z,6.10
2023-03-21T01:50:26.110Z,6.26
2023-03-21T01:53:23.248Z,6.23
2023-03-21T01:55:52.885Z,6.28
2023-03-21T01:58:35.674Z,6.09
2023-03-21T02:01:12.094Z,5.98
2023-03-21T02:03:53.455Z,6.29
2023-03-21T02:06:49.972Z,6.87
2023-03-21T02:09:39.808Z,6.34
2023-03-21T02:12:16.795Z,6.42
2023-03-21T02:14:51.261Z,6.92
2023-03-21T02:18:03.399Z,6.74
2023-03-21T02:21:04.440Z,6.69
2023-03-21T02:23:49.648Z,6.78
2023-03-21T02:26:24.819Z,6.92
2023-03-21T02:29:11.301Z,6.85
2023-03-21T02:31:57.122Z,6.92
2023-03-21T02:35:00.801Z,6.88
2023-03-21T02:37:40.301Z,6.66
2023-03-21T02:40:25.838Z,6.50
2023-03-21T02:43:20.859Z,6.16
2023-03-21T02:46:03.205Z,6.06
2023-03-21T02:49:01.988Z,7.30
2023-03-21T02:51:35.514Z,6.71
2023-03-21T02:54:45.246Z,7.02
2023-03-21T02:57:05.167Z,7.00
2023-03-21T02:59:44.401Z,6.95
2023-03-21T03:02:24.865Z,6.85
2023-03-21T03:04:54.766Z,7.17
2023-03-21T03:07:34.493Z,6.96
2023-03-21T03:10:25.237Z,7.28
2023-03-21T03:12:56.965Z,7.30
2023-03-21T03:15:52.441Z,7.33
2023-03-21T03:18:34.434Z,6.73
2023-03-21T03:21:19.510Z,6.90
2023-03-21T03:23:56.953Z,6.78
2023-03-21T03:26:37.260Z,7.09
2023-03-21T03:29:11.995Z,7.17
2023-03-21T03:31:45.944Z,7.24
2023-03-21T03:34:24.875Z,7.23
2023-03-21T03:37:00.193Z,7.41
2023-03-21T03:39:39.935Z,7.48
2023-03-21T03:42:27.977Z,7.45
2023-03-21T03:45:13.526Z,7.09
2023-03-21T03:47:57.115Z,7.74
2023-03-21T03:50:56.813Z,7.38
2023-03-21T03:53:35.546Z,7.03
2023-03-21T03:56:10.725Z,7.63
2023-03-21T03:58:45.940Z,7.58
2023-03-21T04:01:20.470Z,7.45
2023-03-21T04:03:58.602Z,7.73
2023-03-21T04:06:33.165Z,7.45
2023-03-21T04:09:07.881Z,7.78
2023-03-21T04:11:43.262Z,7.59
2023-03-21T04:14:11.810Z,7.61
2023-03-21T04:16:41.580Z,7.43
2023-03-21T04:19:10.792Z,7.35
2023-03-21T04:21:40.836Z,6.98
2023-03-21T04:24:11.066Z,7.44
2023-03-21T04:26:41.839Z,7.22
2023-03-21T04:29:36.893Z,7.96
2023-03-21T04:32:40.867Z,7.54
2023-03-21T04:35:13.647Z,7.68
2023-03-21T04:37:43.743Z,7.63
2023-03-21T04:40:18.723Z,7.51
2023-03-21T04:42:48.909Z,7.59
2023-03-21T04:45:18.827Z,7.26
2023-03-21T04:47:48.084Z,7.59
2023-03-21T04:50:17.984Z,7.79
2023-03-21T04:52:47.437Z,7.43
2023-03-21T04:55:16.701Z,7.88
2023-03-21T04:57:48.901Z,7.63
2023-03-21T05:00:18.120Z,7.66
2023-03-21T05:02:49.286Z,7.96
2023-03-21T05:05:19.061Z,7.92
2023-03-21T05:07:48.026Z,7.98
2023-03-21T05:10:17.009Z,7.97
2023-03-21T05:12:46.085Z,8.06
2023-03-21T05:15:15.643Z,7.94
2023-03-21T05:17:44.677Z,7.84
2023-03-21T05:20:16.686Z,7.97
2023-03-21T05:22:47.232Z,7.75
2023-03-21T05:25:19.577Z,7.93
2023-03-21T05:28:05.162Z,8.04
2023-03-21T05:30:34.140Z,8.00
2023-03-21T05:33:05.875Z,8.28
2023-03-21T05:35:35.647Z,7.98
2023-03-21T05:38:07.674Z,7.96
2023-03-21T05:40:52.454Z,8.18
2023-03-21T05:43:21.379Z,8.08
2023-03-21T05:45:49.902Z,8.06
2023-03-21T05:48:20.521Z,7.91
2023-03-21T05:51:09.703Z,7.84
2023-03-21T05:53:39.729Z,8.00
2023-03-21T05:56:09.771Z,8.21
2023-03-21T05:58:53.188Z,8.08
2023-03-21T06:01:23.957Z,8.15
2023-03-21T06:04:02.142Z,7.79
2023-03-21T06:06:32.924Z,7.73
2023-03-21T06:09:03.532Z,7.95
2023-03-21T06:11:37.027Z,7.83
2023-03-21T06:14:33.125Z,7.75
2023-03-21T06:17:19.352Z,7.92
2023-03-21T06:19:55.496Z,8.13
2023-03-21T06:22:35.127Z,8.26
2023-03-21T06:25:08.570Z,8.54
2023-03-21T06:27:39.731Z,8.42
2023-03-21T06:30:10.719Z,8.29
2023-03-21T06:32:47.715Z,8.45
2023-03-21T06:35:19.504Z,8.44
2023-03-21T06:37:49.843Z,8.47
2023-03-21T06:40:19.795Z,8.62
2023-03-21T06:42:48.903Z,8.17
2023-03-21T06:45:18.002Z,8.18
2023-03-21T06:47:47.454Z,8.53
2023-03-21T06:50:45.190Z,8.00
2023-03-21T06:53:13.560Z,8.52
2023-03-21T06:56:02.425Z,8.10
2023-03-21T06:58:34.179Z,8.41
2023-03-21T07:01:07.292Z,8.60
2023-03-21T07:03:44.336Z,8.52
2023-03-21T07:06:14.188Z,8.77
2023-03-21T07:08:43.532Z,8.61
2023-03-21T07:11:12.622Z,8.70
2023-03-21T07:13:42.083Z,8.43
2023-03-21T07:16:11.601Z,8.56
2023-03-21T07:18:41.197Z,8.85
2023-03-21T07:21:10.342Z,8.58
2023-03-21T07:23:41.905Z,8.83
2023-03-21T07:26:11.394Z,8.64
2023-03-21T07:28:41.914Z,8.73
2023-03-21T07:31:16.479Z,8.71
2023-03-21T07:33:45.284Z,8.71
2023-03-21T07:36:16.699Z,8.57
2023-03-21T07:38:50.329Z,8.91
2023-03-21T07:41:24.102Z,8.59
2023-03-21T07:43:52.942Z,8.36
2023-03-21T07:46:21.960Z,8.42
2023-03-21T07:48:51.564Z,8.90
2023-03-21T07:51:20.236Z,8.50
2023-03-21T07:53:49.573Z,8.73
2023-03-21T07:56:18.727Z,8.84
2023-03-21T07:58:48.481Z,9.07
2023-03-21T08:01:17.803Z,8.91
2023-03-21T08:03:48.935Z,8.75
2023-03-21T08:06:17.718Z,8.58
2023-03-21T08:08:47.537Z,8.82
2023-03-21T08:11:16.686Z,9.06
2023-03-21T08:13:45.315Z,8.76
2023-03-21T08:16:15.467Z,9.06
2023-03-21T08:18:44.860Z,9.03
2023-03-21T08:21:13.362Z,8.68
2023-03-21T08:23:41.833Z,9.22
2023-03-21T08:26:11.423Z,8.70
2023-03-21T08:28:41.268Z,9.15
2023-03-21T08:31:12.457Z,8.89
2023-03-21T08:33:42.168Z,8.80
2023-03-21T08:36:12.854Z,8.83
2023-03-21T08:38:41.743Z,8.91
2023-03-21T08:41:11.467Z,8.96
2023-03-21T08:43:40.678Z,8.84
2023-03-21T08:46:10.034Z,9.02
2023-03-21T08:48:39.931Z,8.95
2023-03-21T08:51:09.251Z,9.26
2023-03-21T08:53:37.548Z,9.17
2023-03-21T08:56:07.884Z,9.24
2023-03-21T08:58:37.425Z,9.38
2023-03-21T09:01:09.178Z,9.23
2023-03-21T09:03:43.166Z,8.99
2023-03-21T09:06:15.956Z,8.94
2023-03-21T09:08:48.031Z,9.20
2023-03-21T09:11:17.380Z,8.78
2023-03-21T09:13:45.732Z,8.84
2023-03-21T09:16:15.589Z,9.15
2023-03-21T09:18:51.653Z,9.07
2023-03-21T09:21:21.582Z,9.02
2023-03-21T09:23:53.552Z,8.45
2023-03-21T09:26:32.234Z,9.23
2023-03-21T09:29:01.747Z,9.28
2023-03-21T09:31:33.151Z,9.44
2023-03-21T09:34:02.831Z,8.98
2023-03-21T09:36:35.835Z,9.29
2023-03-21T09:39:04.858Z,9.40
2023-03-21T09:41:47.920Z,9.27
2023-03-21T09:44:35.762Z,9.68
2023-03-21T09:47:33.567Z,9.71
2023-03-21T09:50:20.932Z,9.67
2023-03-21T09:53:18.218Z,9.27
2023-03-21T09:55:48.314Z,8.89
2023-03-21T09:58:35.670Z,9.92
2023-03-21T10:01:23.256Z,9.36
2023-03-21T10:03:52.635Z,9.08
2023-03-21T10:06:30.719Z,8.99
2023-03-21T10:09:09.855Z,9.52
2023-03-21T10:11:47.349Z,9.26
2023-03-21T10:14:36.992Z,9.38
2023-03-21T10:17:38.246Z,9.60
2023-03-21T10:20:26.123Z,9.64
2023-03-21T10:23:00.045Z,9.06
2023-03-21T10:25:41.630Z,9.54
2023-03-21T10:28:19.977Z,9.32
2023-03-21T10:30:57.514Z,9.63
2023-03-21T10:33:43.612Z,9.55
2023-03-21T10:36:18.172Z,9.18
2023-03-21T10:39:13.035Z,9.36
2023-03-21T10:41:42.135Z,9.17
2023-03-21T10:44:17.683Z,9.52
2023-03-21T10:47:06.442Z,9.74
2023-03-21T10:50:05.748Z,9.69
2023-03-21T10:52:33.874Z,9.47
2023-03-21T10:55:18.142Z,9.68
2023-03-21T10:57:49.177Z,9.08
2023-03-21T11:00:32.686Z,9.42
2023-03-21T11:03:04.528Z,9.52
2023-03-21T11:05:41.564Z,9.68
2023-03-21T11:08:17.044Z,9.47
2023-03-21T11:11:09.847Z,10.07
2023-03-21T11:13:44.154Z,9.45
2023-03-21T11:16:39.753Z,9.37
2023-03-21T11:19:35.604Z,9.28
2023-03-21T11:22:09.337Z,9.47
2023-03-21T11:24:39.337Z,9.14
2023-03-21T11:27:09.653Z,9.46
2023-03-21T11:29:42.059Z,9.50
2023-03-21T11:32:14.011Z,9.47
2023-03-21T11:34:53.834Z,9.69
2023-03-21T11:37:29.579Z,8.78
2023-03-21T11:40:09.954Z,9.11
2023-03-21T11:42:48.940Z,9.40
2023-03-21T11:45:21.651Z,9.69
2023-03-21T11:47:55.642Z,9.13
2023-03-21T11:50:34.285Z,9.79
2023-03-21T11:53:22.039Z,9.67
2023-03-21T11:56:24.039Z,9.98
2023-03-21T11:59:18.323Z,9.47
2023-03-21T12:01:59.878Z,9.52
2023-03-21T12:04:32.897Z,9.21
2023-03-21T12:07:30.363Z,9.17
2023-03-21T12:10:44.350Z,9.75
2023-03-21T12:13:42.547Z,9.43
2023-03-21T12:16:37.998Z,9.08
2023-03-21T12:19:33.660Z,9.41
2023-03-21T12:22:09.907Z,9.02
2023-03-21T12:25:10.133Z,9.49
2023-03-21T12:28:05.019Z,9.47
2023-03-21T12:31:10.201Z,9.29
2023-03-21T12:33:50.288Z,8.71
2023-03-21T12:36:44.413Z,8.88
2023-03-21T12:39:25.598Z,8.75
2023-03-21T12:42:14.470Z,8.62
2023-03-21T12:44:56.427Z,8.66
2023-03-21T12:47:36.320Z,8.55
2023-03-21T12:50:29.698Z,8.90
2023-03-21T12:53:11.989Z,7.98
2023-03-21T12:55:44.157Z,7.34
2023-03-21T12:58:20.323Z,7.32
2023-03-21T13:00:57.651Z,7.71
2023-03-21T13:03:41.150Z,7.68
2023-03-21T13:06:16.279Z,7.44
2023-03-21T13:09:09.516Z,7.48
2023-03-21T13:11:46.072Z,6.99
2023-03-21T13:14:33.443Z,7.23
2023-03-21T13:17:24.175Z,7.58
2023-03-21T13:20:21.444Z,7.25
2023-03-21T13:22:52.265Z,6.73
2023-03-21T13:25:24.427Z,7.13
2023-03-21T13:28:34.041Z,7.59
2023-03-21T13:31:50.697Z,7.42
2023-03-21T13:34:24.553Z,6.79
2023-03-21T13:37:05.842Z,7.19
2023-03-21T13:39:45.911Z,7.04
2023-03-21T13:42:28.619Z,6.75
2023-03-21T13:45:09.443Z,6.33
2023-03-21T13:47:49.020Z,7.02
2023-03-21T13:50:20.025Z,6.83
2023-03-21T13:53:17.930Z,7.47
2023-03-21T13:56:26.326Z,7.21
2023-03-21T13:59:47.833Z,7.07
2023-03-21T14:02:39.355Z,7.22
2023-03-21T14:05:22.699Z,7.21
2023-03-21T14:08:19.261Z,7.57
2023-03-21T14:11:04.084Z,6.97
2023-03-21T14:13:48.417Z,7.21
2023-03-21T14:16:28.942Z,6.59
2023-03-21T14:19:08.579Z,6.61
2023-03-21T14:21:41.243Z,6.96
2023-03-21T14:24:16.944Z,6.83
2023-03-21T14:26:57.432Z,6.59
2023-03-21T14:29:38.653Z,6.73
2023-03-21T14:32:24.626Z,6.46
2023-03-21T14:35:06.144Z,6.26
2023-03-21T14:37:52.265Z,6.27
2023-03-21T14:40:41.236Z,6.21
2023-03-21T14:43:16.945Z,5.95
2023-03-21T14:46:17.499Z,5.98
2023-03-21T14:48:48.548Z,5.97
2023-03-21T14:51:18.739Z,6.32
2023-03-21T14:53:53.299Z,5.89
2023-03-21T14:56:33.671Z,5.65
2023-03-21T14:59:18.444Z,5.57
2023-03-21T15:01:56.825Z,5.53
2023-03-21T15:04:42.705Z,5.46
2023-03-21T15:07:40.946Z,4.95
2023-03-21T15:10:22.292Z,5.12
2023-03-21T15:13:32.169Z,5.40
2023-03-21T15:16:18.334Z,5.02
2023-03-21T15:18:57.188Z,5.28
2023-03-21T15:21:54.343Z,5.02
2023-03-21T15:24:50.162Z,5.03
2023-03-21T15:27:34.272Z,5.13
2023-03-21T15:30:38.436Z,4.45
2023-03-21T15:33:28.872Z,5.06
2023-03-21T15:36:16.543Z,4.50
2023-03-21T15:39:26.323Z,3.95
2023-03-21T15:43:17.814Z,4.03
2023-03-21T15:46:05.052Z,4.19
2023-03-21T15:48:50.628Z,4.81
2023-03-21T15:51:36.647Z,4.67
2023-03-21T15:55:12.943Z,3.84
2023-03-21T15:58:14.320Z,4.15
2023-03-21T16:01:13.212Z,3.73
2023-03-21T16:03:51.281Z,4.29
2023-03-21T16:06:26.381Z,4.78
2023-03-21T16:09:12.354Z,4.00
2023-03-21T16:11:52.265Z,4.15
2023-03-21T16:14:25.061Z,4.21
2023-03-21T16:17:01.714Z,4.56
2023-03-21T16:19:38.000Z,4.42
2023-03-21T16:22:15.727Z,4.06
2023-03-21T16:24:49.148Z,3.82
2023-03-21T16:27:26.406Z,3.84
2023-03-21T16:30:01.034Z,4.06
2023-03-21T16:32:46.082Z,4.22
2023-03-21T16:35:18.434Z,4.11
2023-03-21T16:37:50.859Z,3.98
2023-03-21T16:40:37.392Z,3.93
2023-03-21T16:43:09.602Z,4.15
2023-03-21T16:45:46.490Z,3.92
2023-03-21T16:48:21.794Z,3.59
2023-03-21T16:50:57.535Z,3.83
2023-03-21T16:53:35.945Z,3.95
2023-03-21T16:56:22.582Z,3.41
2023-03-21T16:59:01.617Z,3.58
2023-03-21T17:01:41.482Z,3.76
2023-03-21T17:04:20.310Z,3.49
2023-03-21T17:07:02.349Z,3.36
2023-03-21T17:09:39.978Z,3.78
2023-03-21T17:12:18.266Z,3.64
2023-03-21T17:14:50.171Z,3.76
2023-03-21T17:17:21.985Z,3.84
2023-03-21T17:19:56.744Z,3.27
2023-03-21T17:22:34.115Z,3.58
2023-03-21T17:25:08.455Z,3.28
2023-03-21T17:27:49.853Z,3.16
2023-03-21T17:30:44.031Z,3.01
2023-03-21T17:33:16.902Z,3.56
2023-03-21T17:35:48.793Z,3.38
2023-03-21T17:38:18.446Z,3.51
2023-03-21T17:40:51.665Z,3.57
2023-03-21T17:43:26.220Z,3.34
2023-03-21T17:46:09.313Z,2.82
2023-03-21T17:48:41.496Z,3.10
2023-03-21T17:51:20.830Z,2.94
2023-03-21T17:53:53.865Z,3.14
2023-03-21T17:56:36.838Z,3.03
2023-03-21T17:59:13.094Z,2.58
2023-03-21T18:01:46.931Z,2.64
2023-03-21T18:04:18.420Z,2.67
2023-03-21T18:06:53.506Z,2.52
2023-03-21T18:09:27.005Z,2.67
2023-03-21T18:12:01.976Z,2.74
2023-03-21T18:14:40.440Z,2.42
2023-03-21T18:17:20.388Z,2.37
2023-03-21T18:19:57.358Z,2.96
2023-03-21T18:22:34.765Z,2.58
2023-03-21T18:25:10.725Z,2.94
2023-03-21T18:28:09.183Z,2.71
2023-03-21T18:33:36.803Z,2.30
2023-03-21T18:36:14.858Z,2.18
2023-03-21T18:38:48.771Z,2.51
2023-03-21T18:41:21.659Z,2.56
2023-03-21T18:44:05.126Z,2.08
2023-03-21T18:46:47.987Z,2.60
2023-03-21T18:50:01.935Z,1.56
2023-03-21T18:52:09.091Z,2.04
2023-03-21T18:54:38.279Z,2.26
2023-03-21T18:59:59.971Z,2.66
2023-03-21T19:02:30.747Z,2.47
2023-03-21T19:05:02.019Z,2.75
2023-03-21T19:07:32.338Z,2.89
2023-03-21T19:10:17.071Z,2.75
2023-03-21T19:12:46.392Z,2.74
2023-03-21T19:15:18.292Z,2.99
2023-03-21T19:20:38.352Z,2.66
2023-03-21T19:23:10.189Z,2.76
2023-03-21T19:25:40.524Z,2.80
2023-03-21T19:28:10.306Z,2.59
2023-03-21T19:30:48.987Z,2.76
2023-03-21T19:33:21.045Z,2.57
2023-03-21T19:36:08.932Z,2.81
2023-03-21T19:38:41.667Z,2.88
2023-03-21T19:41:10.781Z,2.69
2023-03-21T19:43:52.853Z,2.43
2023-03-21T19:46:25.699Z,2.31
2023-03-21T19:48:57.312Z,2.84
2023-03-21T19:51:30.418Z,2.39
2023-03-21T19:54:05.359Z,2.58
2023-03-21T19:56:34.834Z,2.07
2023-03-21T19:59:04.106Z,2.19
2023-03-21T20:01:35.822Z,2.74
2023-03-21T20:04:04.899Z,2.11
2023-03-21T20:06:34.341Z,2.46
2023-03-21T20:11:56.946Z,2.62
2023-03-21T20:14:26.722Z,2.27
2023-03-21T20:16:57.681Z,2.43
2023-03-21T20:19:29.514Z,2.58
2023-03-21T20:22:02.190Z,2.35
2023-03-21T20:24:34.992Z,2.29
2023-03-21T20:27:06.455Z,2.44
2023-03-21T20:30:10.693Z,2.41
2023-03-21T20:32:29.907Z,2.53
2023-03-21T20:35:13.693Z,2.50
2023-03-21T20:37:50.348Z,2.35
2023-03-21T20:40:22.199Z,2.21
2023-03-21T20:42:51.688Z,1.94
2023-03-21T20:45:20.218Z,2.19
2023-03-21T20:47:50.138Z,1.83
2023-03-21T20:50:21.996Z,2.08
2023-03-21T20:53:05.912Z,2.07
2023-03-21T20:55:38.232Z,2.22
2023-03-21T20:58:30.040Z,2.61
2023-03-21T21:01:05.210Z,2.45
2023-03-21T21:03:42.055Z,2.51
2023-03-21T21:06:16.699Z,2.35
2023-03-21T21:08:47.864Z,2.30
2023-03-21T21:12:04.644Z,2.28
2023-03-21T21:14:08.330Z,2.50
2023-03-21T21:16:37.677Z,2.18
2023-03-21T21:19:06.354Z,2.19
2023-03-21T21:21:36.240Z,2.84
2023-03-21T21:24:07.604Z,2.57
2023-03-21T21:26:37.085Z,2.54
2023-03-21T21:29:07.736Z,2.79
2023-03-21T21:31:36.099Z,2.72
2023-03-21T21:34:06.125Z,2.77
2023-03-21T21:36:36.173Z,2.49
2023-03-21T21:39:06.929Z,2.86
2023-03-21T21:41:37.433Z,2.72
2023-03-21T21:44:07.838Z,2.62
2023-03-21T21:46:37.144Z,2.47
2023-03-21T21:49:06.148Z,2.71
2023-03-21T21:51:35.958Z,2.48
2023-03-21T21:54:08.291Z,2.28
2023-03-21T21:56:38.225Z,2.51
2023-03-21T21:59:08.192Z,2.66
2023-03-21T22:01:40.105Z,2.41
2023-03-21T22:04:11.996Z,2.62
2023-03-21T22:06:42.888Z,2.80
2023-03-21T22:09:12.275Z,2.81
2023-03-21T22:11:41.733Z,2.81
2023-03-21T22:14:10.113Z,2.85
2023-03-21T22:16:39.000Z,2.83
2023-03-21T22:19:09.498Z,2.53
2023-03-21T22:21:38.190Z,2.46
2023-03-21T22:24:08.254Z,2.44
2023-03-21T22:26:37.002Z,2.62
2023-03-21T22:29:08.961Z,2.54
2023-03-21T22:31:40.164Z,2.88
2023-03-21T22:34:09.569Z,2.69
2023-03-21T22:36:38.051Z,2.79
2023-03-21T22:39:09.072Z,2.90
2023-03-21T22:41:38.523Z,2.57
2023-03-21T22:44:08.638Z,2.68
2023-03-21T22:46:37.781Z,2.73
2023-03-21T22:49:06.904Z,2.69
2023-03-21T22:51:36.701Z,2.52
2023-03-21T22:54:05.953Z,2.78
2023-03-21T22:56:35.646Z,2.67
2023-03-21T22:59:04.459Z,2.92
2023-03-21T23:01:33.467Z,3.09
2023-03-21T23:04:02.540Z,2.88
2023-03-21T23:06:32.660Z,3.16
2023-03-21T23:09:02.762Z,2.85
2023-03-21T23:11:32.512Z,3.07
2023-03-21T23:14:07.933Z,3.30
2023-03-21T23:16:38.677Z,3.23
2023-03-21T23:19:11.003Z,3.13
2023-03-21T23:21:42.033Z,3.27
2023-03-21T23:24:11.781Z,3.07
2023-03-21T23:26:41.616Z,3.29
2023-03-21T23:29:11.744Z,3.48
2023-03-21T23:31:40.634Z,3.56
2023-03-21T23:34:09.760Z,3.13
2023-03-21T23:36:38.109Z,3.37
2023-03-21T23:39:08.028Z,3.28
2023-03-21T23:41:37.211Z,3.63
2023-03-21T23:44:06.872Z,3.24
2023-03-21T23:46:36.332Z,3.06
2023-03-21T23:49:05.466Z,3.37
2023-03-21T23:51:34.191Z,3.42
2023-03-21T23:54:04.044Z,3.61
2023-03-21T23:56:33.477Z,3.56
2023-03-21T23:59:02.452Z,3.52
